Strona główna
METAR-TAF:

METAR-TAF

Lotnisko :

Delaware County Airport (Johnson Field)

Muncie, Indiana, Stany Zjednoczone

Szerokość geograficzna: 40-14-03N, Długość geograficzna: 085-23-37W, wysokość: 285 m

Aktualna obserwacja pogody

Raport powstał 53 minut temu, godzina 07:53 UTC
Cisza
Temperatura 21°C
Wilgotność 83%
Ciśnienie 1014 hPa
Widzialność: 16.1 km
Przerywane chmury na wysokości 4800 ft
Zachmurzenie całkowite na wysokości 8000 ft

METAR: KMIE 280753Z AUTO 00000KT 10SM BKN048 OVC080 21/18 A2994 RMK AO2 SLP126 T02110183

czas: 04:46 (08:46 UTC)


TAF: brakujący

Obserwacja i prognoza pogody dla ponad 4000 lotnisk (raport METAR i TAF).

Dostępne stacje oznaczono żółtymi i czerwonymi punktami na mapie.

Najedź kursorem aby zobaczyć nazwę stacji.

Kliknij aby zobaczyć obserwacje i prognozy pogody.

Aby zmienić mapę: kliknij na zielony przycisk z czarnym krzyżykiem, aby powiększyć; na zielony przycisk z myślnikiem, aby pomniejszyć; na zielone strzałki, aby przejść do map sąsiednich.


METAR-TAF: